Time;durP1;ratioP1;P1;durP2;ratioP2;P2;SDS_P1;SDS_P2;PMS_P1;PMS_P2;Temp;Humidity;BMP_temperature;BMP_pressure;BME280_temperature;BME280_humidity;BME280_pressure;Samples;Min_cycle;Max_cycle;Signal;HPM_P1;HPM_P2
2021/07/02 00:03:44;;;;;;;11.43;7.03;;;;;12.00;101186.00;;;;10473232;28;20554;-80
2021/07/02 00:08:46;;;;;;;15.87;8.37;;;;;12.00;101183.00;;;;10489988;28;20193;-80
2021/07/02 00:13:48;;;;;;;16.87;8.13;;;;;12.00;101177.00;;;;10472538;28;20189;-80
2021/07/02 00:18:50;;;;;;;12.10;7.67;;;;;12.00;101180.00;;;;10480494;28;20194;-79
2021/07/02 00:23:52;;;;;;;16.87;8.10;;;;;12.00;101182.00;;;;10498130;28;20185;-79
2021/07/02 00:28:54;;;;;;;16.00;8.87;;;;;12.00;101170.00;;;;10480817;28;20214;-79
2021/07/02 00:33:56;;;;;;;13.57;8.47;;;;;12.00;101172.00;;;;10479873;28;20213;-79
2021/07/02 00:38:59;;;;;;;13.50;7.90;;;;;12.00;101172.00;;;;10480048;28;20233;-80
2021/07/02 00:44:01;;;;;;;16.63;7.97;;;;;11.90;101171.00;;;;10480209;28;20216;-80
2021/07/02 00:49:03;;;;;;;16.40;9.37;;;;;11.90;101168.00;;;;10513435;28;20537;-79
2021/07/02 00:54:06;;;;;;;15.30;8.40;;;;;12.00;101168.00;;;;10479676;28;20339;-79
2021/07/02 00:59:08;;;;;;;26.80;9.70;;;;;12.00;101167.00;;;;10479996;28;20201;-80
2021/07/02 01:04:10;;;;;;;12.03;8.03;;;;;12.00;101174.00;;;;10471799;28;20201;-75
2021/07/02 01:09:13;;;;;;;19.90;9.33;;;;;12.00;101165.00;;;;10486208;28;20197;-77
2021/07/02 01:14:15;;;;;;;13.50;8.67;;;;;12.10;101168.00;;;;10485954;28;20200;-76
2021/07/02 01:19:18;;;;;;;18.87;8.87;;;;;12.10;101164.00;;;;10501571;28;20292;-76
2021/07/02 01:24:24;;;;;;;14.70;8.53;;;;;12.10;101165.00;;;;10468345;28;20205;-77
2021/07/02 01:29:27;;;;;;;21.87;8.43;;;;;12.10;101163.00;;;;10484070;28;20190;-77
2021/07/02 01:34:29;;;;;;;18.87;8.57;;;;;12.10;101156.00;;;;10468153;28;20214;-76
2021/07/02 01:39:32;;;;;;;13.77;8.37;;;;;12.00;101163.00;;;;10483930;28;20225;-76
2021/07/02 01:44:34;;;;;;;12.83;9.07;;;;;12.00;101150.00;;;;10484617;28;20250;-76
2021/07/02 01:49:36;;;;;;;12.27;8.27;;;;;12.10;101163.00;;;;10484193;28;20185;-76
2021/07/02 01:54:39;;;;;;;14.60;8.80;;;;;12.10;101158.00;;;;10507508;28;20197;-76
2021/07/02 01:59:42;;;;;;;13.47;8.00;;;;;12.00;101158.00;;;;10492734;28;20638;-76
2021/07/02 02:04:49;;;;;;;14.80;8.63;;;;;12.00;101161.00;;;;10509779;28;20196;-77
2021/07/02 02:09:53;;;;;;;16.53;9.13;;;;;12.00;101152.00;;;;10491758;28;20189;-76
2021/07/02 02:14:57;;;;;;;14.50;8.80;;;;;12.00;101151.00;;;;10491911;28;20232;-76
2021/07/02 02:20:04;;;;;;;14.70;8.60;;;;;12.00;101146.00;;;;10492442;28;20555;-77
2021/07/02 02:25:07;;;;;;;12.57;8.53;;;;;12.10;101148.00;;;;10491693;28;20296;-76
2021/07/02 02:30:11;;;;;;;21.20;9.83;;;;;12.20;101143.00;;;;10508170;28;20189;-76
2021/07/02 02:35:13;;;;;;;13.37;7.87;;;;;12.20;101132.00;;;;10491325;28;20217;-76
2021/07/02 02:40:16;;;;;;;16.67;9.23;;;;;12.30;101133.00;;;;10490289;28;20683;-76
2021/07/02 02:45:19;;;;;;;17.67;9.13;;;;;12.30;101143.00;;;;10507614;28;20242;-75
2021/07/02 02:50:21;;;;;;;19.67;8.77;;;;;12.40;101137.00;;;;10490160;28;20644;-76
2021/07/02 02:55:24;;;;;;;15.77;8.77;;;;;12.50;101145.00;;;;10506942;28;20641;-75
2021/07/02 03:00:27;;;;;;;19.80;8.90;;;;;12.60;101152.00;;;;10506777;28;20205;-76
2021/07/02 03:05:31;;;;;;;14.77;8.37;;;;;12.70;101149.00;;;;10490264;28;20246;-77
2021/07/02 03:10:33;;;;;;;12.87;8.00;;;;;12.70;101143.00;;;;10490015;28;20184;-76
2021/07/02 03:15:36;;;;;;;15.90;9.13;;;;;12.70;101150.00;;;;10489692;28;20224;-76
2021/07/02 03:20:39;;;;;;;15.77;8.63;;;;;12.70;101144.00;;;;10522378;28;20207;-76
2021/07/02 03:25:41;;;;;;;12.37;7.57;;;;;12.60;101146.00;;;;10472721;28;20664;-76
2021/07/02 03:30:44;;;;;;;13.93;7.63;;;;;12.50;101142.00;;;;10463992;28;20189;-76
2021/07/02 03:35:47;;;;;;;12.50;7.73;;;;;12.50;101130.00;;;;10502703;28;20248;-76
2021/07/02 03:40:49;;;;;;;13.60;7.60;;;;;12.50;101134.00;;;;10488851;28;20217;-76
2021/07/02 03:45:52;;;;;;;16.20;8.53;;;;;12.40;101132.00;;;;10505765;28;20580;-76
2021/07/02 03:50:55;;;;;;;11.20;7.63;;;;;12.40;101134.00;;;;10504553;28;20297;-76
2021/07/02 03:55:57;;;;;;;12.93;8.23;;;;;12.40;101138.00;;;;10454776;28;20201;-76
2021/07/02 04:00:59;;;;;;;10.23;7.50;;;;;12.40;101143.00;;;;10446984;28;20247;-76
2021/07/02 04:06:02;;;;;;;16.33;7.83;;;;;12.30;101140.00;;;;10479393;28;20200;-76
2021/07/02 04:11:06;;;;;;;17.03;7.90;;;;;12.30;101145.00;;;;10446912;28;20203;-76
2021/07/02 04:16:08;;;;;;;13.53;8.60;;;;;12.40;101148.00;;;;10479420;28;20201;-76
2021/07/02 04:21:10;;;;;;;18.37;8.50;;;;;12.50;101150.00;;;;10479450;28;20210;-76
2021/07/02 04:26:12;;;;;;;15.30;7.27;;;;;12.70;101146.00;;;;10479791;28;20220;-75
2021/07/02 04:31:14;;;;;;;12.60;7.90;;;;;13.00;101145.00;;;;10463068;28;20186;-76
2021/07/02 04:36:16;;;;;;;15.00;8.23;;;;;13.10;101135.00;;;;10512676;28;20238;-76
2021/07/02 04:41:18;;;;;;;13.77;7.93;;;;;13.30;101138.00;;;;10486773;28;20285;-76
2021/07/02 04:46:21;;;;;;;14.13;7.60;;;;;13.50;101143.00;;;;10503356;28;20201;-76
2021/07/02 04:51:23;;;;;;;15.33;7.37;;;;;13.70;101139.00;;;;10503354;28;20190;-76
2021/07/02 04:56:25;;;;;;;14.07;7.83;;;;;14.10;101139.00;;;;10520532;28;20242;-76
2021/07/02 05:01:27;;;;;;;16.17;8.10;;;;;14.20;101142.00;;;;10493873;28;20213;-76
2021/07/02 05:06:30;;;;;;;13.33;7.53;;;;;14.30;101153.00;;;;10469138;28;20193;-77
2021/07/02 05:11:36;;;;;;;11.63;6.97;;;;;14.60;101151.00;;;;10486307;28;20599;-76
2021/07/02 05:16:38;;;;;;;12.97;7.10;;;;;14.80;101151.00;;;;10452997;28;20201;-75
2021/07/02 05:21:40;;;;;;;11.30;6.87;;;;;15.00;101144.00;;;;10452937;28;20218;-75
2021/07/02 05:26:42;;;;;;;11.97;7.57;;;;;15.20;101130.00;;;;10508378;28;20214;-76
2021/07/02 05:31:44;;;;;;;11.93;6.83;;;;;15.40;101131.00;;;;10485272;28;20276;-76
2021/07/02 05:36:46;;;;;;;11.67;6.60;;;;;15.70;101136.00;;;;10451797;28;20194;-76
2021/07/02 05:41:48;;;;;;;13.13;7.03;;;;;15.90;101140.00;;;;10467602;28;20291;-76
2021/07/02 05:46:50;;;;;;;13.87;6.17;;;;;16.10;101148.00;;;;10543545;28;20193;-76
2021/07/02 05:51:53;;;;;;;12.80;6.97;;;;;16.30;101150.00;;;;10509479;28;20189;-76
2021/07/02 05:56:54;;;;;;;12.90;7.73;;;;;16.60;101158.00;;;;10444587;28;20201;-77
2021/07/02 06:01:56;;;;;;;12.45;6.93;;;;;16.80;101163.00;;;;10468819;28;20626;-76
2021/07/02 06:06:58;;;;;;;13.77;7.83;;;;;17.00;101156.00;;;;10525885;28;20192;-76
2021/07/02 06:12:02;;;;;;;14.37;8.17;;;;;17.10;101163.00;;;;10524416;28;20192;-76
2021/07/02 06:17:04;;;;;;;15.57;8.00;;;;;17.30;101172.00;;;;10496453;28;20202;-76
2021/07/02 06:22:06;;;;;;;13.75;9.55;;;;;17.60;101158.00;;;;10468169;28;20209;-75
2021/07/02 06:27:08;;;;;;;14.93;9.23;;;;;17.90;101153.00;;;;10483140;28;20193;-77
2021/07/02 06:32:10;;;;;;;16.45;10.70;;;;;18.40;101148.00;;;;10483200;28;20232;-76
2021/07/02 06:37:12;;;;;;;23.08;11.20;;;;;19.10;101149.00;;;;10482790;28;20202;-76
2021/07/02 06:42:14;;;;;;;14.05;10.32;;;;;20.30;101144.00;;;;10487845;28;20575;-76
2021/07/02 06:47:16;;;;;;;14.65;10.65;;;;;20.60;101134.00;;;;10541914;28;20188;-76
2021/07/02 06:52:18;;;;;;;18.00;11.00;;;;;20.90;101149.00;;;;10523049;28;20189;-76
2021/07/02 06:57:20;;;;;;;18.08;11.50;;;;;21.00;101143.00;;;;10507415;28;20191;-76
2021/07/02 07:02:22;;;;;;;19.83;12.20;;;;;20.90;101146.00;;;;10501000;28;20259;-76
2021/07/02 07:07:24;;;;;;;17.50;11.57;;;;;21.00;101147.00;;;;10481457;28;20194;-76
2021/07/02 07:12:26;;;;;;;20.08;11.80;;;;;21.50;101155.00;;;;10481731;28;20194;-76
2021/07/02 07:17:29;;;;;;;25.02;13.60;;;;;22.20;101160.00;;;;10447801;28;20656;-76
2021/07/02 07:22:32;;;;;;;17.95;12.30;;;;;21.70;101166.00;;;;10464500;28;20696;-75
2021/07/02 07:27:36;;;;;;;18.80;13.90;;;;;21.20;101160.00;;;;10463146;28;20284;-76
2021/07/02 07:32:38;;;;;;;18.70;12.45;;;;;22.10;101150.00;;;;10464614;28;20206;-75
2021/07/02 07:37:41;;;;;;;22.52;14.35;;;;;22.60;101151.00;;;;10463660;28;20644;-75
2021/07/02 07:42:43;;;;;;;20.88;13.32;;;;;23.20;101151.00;;;;10464077;28;20205;-76
2021/07/02 07:47:45;;;;;;;24.52;14.60;;;;;23.80;101162.00;;;;10464054;28;20197;-76
2021/07/02 07:57:56;;;;;;;18.92;13.52;;;;;24.40;101158.00;;;;10504631;28;20193;-76
2021/07/02 08:03:00;;;;;;;16.38;11.10;;;;;24.70;101144.00;;;;10467204;28;20240;-76
2021/07/02 08:08:02;;;;;;;15.30;10.50;;;;;24.90;101154.00;;;;10483486;28;20240;-76
2021/07/02 08:13:04;;;;;;;14.77;10.18;;;;;24.80;101156.00;;;;10504281;28;20227;-76
2021/07/02 08:18:06;;;;;;;17.40;11.93;;;;;24.70;101159.00;;;;10494166;28;20193;-76
2021/07/02 08:23:09;;;;;;;12.57;7.97;;;;;25.30;101168.00;;;;10462977;28;20231;-76
2021/07/02 08:33:32;;;;;;;11.38;7.70;;;;;25.80;101170.00;;;;10520657;28;20771;-76
2021/07/02 08:38:34;;;;;;;8.73;7.00;;;;;25.50;101173.00;;;;10526567;28;20240;-76
2021/07/02 08:43:36;;;;;;;10.93;7.00;;;;;25.40;101165.00;;;;10528253;28;20216;-76
2021/07/02 08:48:39;;;;;;;11.00;6.70;;;;;25.80;101166.00;;;;10489632;28;20835;-76
2021/07/02 08:53:42;;;;;;;12.52;7.22;;;;;25.70;101164.00;;;;10475910;28;20192;-77
2021/07/02 08:58:44;;;;;;;7.43;5.95;;;;;25.90;101162.00;;;;10512351;28;20242;-76
2021/07/02 09:03:46;;;;;;;10.32;5.28;;;;;25.20;101176.00;;;;10528033;28;20209;-77
2021/07/02 09:09:14;;;;;;;9.50;6.60;;;;;25.50;101184.00;;;;10501371;28;20251;-76
2021/07/02 09:14:24;;;;;;;7.13;5.50;;;;;23.60;101184.00;;;;10482590;28;20217;-77
2021/07/02 09:19:28;;;;;;;7.28;4.97;;;;;24.20;101178.00;;;;10527247;28;20185;-77
2021/07/02 09:24:39;;;;;;;8.82;6.07;;;;;25.40;101181.00;;;;10529214;28;20224;-76
2021/07/02 09:29:41;;;;;;;6.78;5.05;;;;;26.30;101189.00;;;;10541016;28;20288;-76
2021/07/02 09:34:51;;;;;;;10.25;5.57;;;;;27.70;101194.00;;;;10498444;28;20244;-77
2021/07/02 09:39:53;;;;;;;11.90;6.05;;;;;28.80;101186.00;;;;10484633;28;20194;-77
2021/07/02 09:45:07;;;;;;;7.18;5.47;;;;;29.40;101187.00;;;;10467580;28;20217;-77
2021/07/02 09:50:15;;;;;;;6.20;5.57;;;;;27.80;101190.00;;;;10495677;28;20205;-76
2021/07/02 09:55:21;;;;;;;6.97;5.82;;;;;26.70;101206.00;;;;10509320;28;20556;-77
2021/07/02 10:00:23;;;;;;;8.45;6.65;;;;;25.40;101194.00;;;;10461697;28;20201;-76
2021/07/02 10:05:26;;;;;;;7.88;6.50;;;;;26.60;101203.00;;;;10495118;28;20275;-77
2021/07/02 10:10:29;;;;;;;10.93;6.55;;;;;25.80;101199.00;;;;10472442;28;20577;-77
2021/07/02 10:15:32;;;;;;;10.88;6.85;;;;;25.30;101204.00;;;;10488806;28;20697;-77
2021/07/02 10:20:35;;;;;;;13.35;7.30;;;;;26.50;101203.00;;;;10449770;28;20209;-77
2021/07/02 10:25:41;;;;;;;13.55;7.30;;;;;27.60;101203.00;;;;10455571;28;20248;-77
2021/07/02 10:30:43;;;;;;;9.27;6.68;;;;;27.00;101216.00;;;;10458619;28;20186;-77
2021/07/02 10:35:52;;;;;;;9.55;6.10;;;;;26.50;101204.00;;;;10465741;28;20221;-77
2021/07/02 10:41:12;;;;;;;8.48;6.63;;;;;27.50;101211.00;;;;10482273;28;20241;-77
2021/07/02 10:46:16;;;;;;;11.35;5.90;;;;;27.40;101209.00;;;;10449104;28;20534;-77
2021/07/02 10:51:30;;;;;;;9.50;6.07;;;;;28.20;101199.00;;;;10484393;28;20196;-77
2021/07/02 10:56:32;;;;;;;9.38;6.68;;;;;29.90;101204.00;;;;10484570;28;20193;-77
2021/07/02 11:01:34;;;;;;;9.07;6.40;;;;;30.70;101214.00;;;;10497781;28;20213;-77
2021/07/02 11:06:40;;;;;;;9.13;6.60;;;;;28.80;101210.00;;;;10469440;28;20201;-77
2021/07/02 11:12:15;;;;;;;9.85;7.47;;;;;28.40;101202.00;;;;10465553;28;20194;-77
2021/07/02 11:17:27;;;;;;;9.43;7.38;;;;;29.50;101192.00;;;;10422376;28;20233;-77
2021/07/02 11:22:29;;;;;;;11.02;7.53;;;;;28.80;101196.00;;;;10472819;28;20217;-77
2021/07/02 11:27:48;;;;;;;9.88;7.13;;;;;29.40;101191.00;;;;10505842;28;20193;-77
2021/07/02 11:32:52;;;;;;;7.85;7.00;;;;;29.60;101186.00;;;;10479932;28;20260;-77
2021/07/02 11:38:18;;;;;;;15.40;8.23;;;;;29.70;101191.00;;;;10463464;28;20653;-77
2021/07/02 11:43:32;;;;;;;11.00;8.00;;;;;30.30;101183.00;;;;10447150;28;20672;-77
2021/07/02 11:48:36;;;;;;;11.10;8.13;;;;;29.50;101190.00;;;;10491218;28;20197;-77
2021/07/02 11:53:41;;;;;;;13.98;8.45;;;;;27.90;101194.00;;;;10482905;28;20201;-77
2021/07/02 11:58:47;;;;;;;9.63;7.43;;;;;28.80;101177.00;;;;10488549;28;20223;-77
2021/07/02 12:04:00;;;;;;;8.90;7.80;;;;;29.70;101174.00;;;;10482849;28;20217;-77
2021/07/02 12:09:08;;;;;;;10.18;7.47;;;;;30.50;101177.00;;;;10446496;28;20243;-77
2021/07/02 12:14:12;;;;;;;9.77;7.22;;;;;30.40;101180.00;;;;10465162;28;20189;-77
2021/07/02 12:19:16;;;;;;;8.43;7.53;;;;;29.10;101173.00;;;;10496603;28;20193;-76
2021/07/02 12:24:21;;;;;;;7.90;6.40;;;;;29.30;101163.00;;;;10526281;28;20808;-76
2021/07/02 12:29:27;;;;;;;9.27;7.65;;;;;30.30;101159.00;;;;10515398;28;20240;-77
2021/07/02 12:34:35;;;;;;;14.30;7.53;;;;;29.70;101176.00;;;;10462952;28;20221;-77
2021/07/02 12:39:46;;;;;;;10.05;7.10;;;;;28.90;101173.00;;;;10495418;28;20615;-76
2021/07/02 12:44:59;;;;;;;11.50;6.88;;;;;28.20;101173.00;;;;10473487;28;20241;-77
2021/07/02 12:50:11;;;;;;;12.75;7.35;;;;;27.40;101162.00;;;;10453741;28;20296;-77
2021/07/02 12:55:18;;;;;;;12.73;7.13;;;;;28.40;101160.00;;;;10472494;28;20204;-77
2021/07/02 13:00:21;;;;;;;9.13;5.57;;;;;29.30;101160.00;;;;10453553;28;20193;-77
2021/07/02 13:05:23;;;;;;;9.50;6.25;;;;;29.50;101155.00;;;;10469154;28;20210;-77
2021/07/02 13:10:28;;;;;;;7.13;6.13;;;;;29.60;101153.00;;;;10469140;28;20189;-77
2021/07/02 13:15:31;;;;;;;10.50;5.80;;;;;30.70;101166.00;;;;10453074;28;20204;-76
2021/07/02 13:20:46;;;;;;;7.57;6.20;;;;;29.30;101168.00;;;;10479914;28;20196;-76
2021/07/02 13:26:04;;;;;;;11.40;5.72;;;;;31.50;101172.00;;;;10492696;28;20192;-77
2021/07/02 13:31:28;;;;;;;7.30;6.45;;;;;32.50;101177.00;;;;10493455;28;20243;-77
2021/07/02 13:36:35;;;;;;;8.70;5.55;;;;;33.00;101165.00;;;;10493331;28;20275;-77
2021/07/02 13:41:39;;;;;;;7.63;5.88;;;;;33.20;101167.00;;;;10509583;28;20240;-77
2021/07/02 13:46:42;;;;;;;9.95;5.47;;;;;34.10;101171.00;;;;10509291;28;20193;-77
2021/07/02 13:51:43;;;;;;;7.50;6.05;;;;;33.40;101172.00;;;;10508989;28;20193;-76
2021/07/02 13:56:49;;;;;;;8.77;5.80;;;;;34.20;101166.00;;;;10467145;28;20220;-77
2021/07/02 14:01:52;;;;;;;7.78;5.68;;;;;34.50;101173.00;;;;10450593;28;20213;-77
2021/07/02 14:06:55;;;;;;;7.80;5.75;;;;;35.10;101176.00;;;;10467368;28;20272;-77
2021/07/02 14:11:56;;;;;;;5.53;4.72;;;;;36.00;101173.00;;;;10483803;28;20200;-77
2021/07/02 14:17:00;;;;;;;6.78;5.45;;;;;34.60;101181.00;;;;10467381;28;20186;-77
2021/07/02 14:22:03;;;;;;;8.15;5.60;;;;;33.30;101190.00;;;;10482173;28;20694;-77
2021/07/02 14:27:05;;;;;;;6.10;4.88;;;;;33.90;101182.00;;;;10508173;28;20192;-77
2021/07/02 14:32:14;;;;;;;9.77;6.20;;;;;35.70;101177.00;;;;10524340;28;20216;-77
2021/07/02 14:37:16;;;;;;;7.68;6.07;;;;;37.70;101182.00;;;;10490798;28;20189;-77
2021/07/02 14:42:18;;;;;;;7.30;6.53;;;;;39.30;101185.00;;;;10490787;28;20209;-77
2021/07/02 14:47:20;;;;;;;6.97;4.80;;;;;35.50;101199.00;;;;10500312;28;20656;-77
2021/07/02 14:52:22;;;;;;;6.88;5.85;;;;;37.30;101197.00;;;;10490422;28;20246;-77
2021/07/02 14:57:28;;;;;;;8.93;5.97;;;;;35.70;101181.00;;;;10465192;28;20224;-77
2021/07/02 15:02:29;;;;;;;7.20;5.93;;;;;35.40;101175.00;;;;10448749;28;20205;-77
2021/07/02 15:07:31;;;;;;;9.13;6.70;;;;;36.30;101174.00;;;;10432303;28;20185;-77
2021/07/02 15:12:33;;;;;;;7.63;5.85;;;;;38.70;101172.00;;;;10447392;28;20216;-77
2021/07/02 15:17:36;;;;;;;6.68;5.93;;;;;37.40;101199.00;;;;10506348;28;20254;-77
2021/07/02 15:22:42;;;;;;;7.50;6.28;;;;;36.60;101188.00;;;;10516701;28;20204;-77
2021/07/02 15:27:45;;;;;;;9.40;6.72;;;;;34.70;101167.00;;;;10457438;28;20197;-77
2021/07/02 15:32:47;;;;;;;6.65;5.95;;;;;37.40;101165.00;;;;10489413;28;20236;-78
2021/07/02 15:37:49;;;;;;;7.72;6.28;;;;;39.60;101157.00;;;;10489892;28;20200;-78
2021/07/02 15:42:51;;;;;;;8.65;6.10;;;;;40.30;101164.00;;;;10472823;28;20219;-77
2021/07/02 15:47:53;;;;;;;6.40;5.80;;;;;37.30;101154.00;;;;10521524;28;20192;-77
2021/07/02 15:52:55;;;;;;;7.15;6.45;;;;;33.70;101161.00;;;;10497201;28;20201;-77
2021/07/02 15:57:57;;;;;;;9.27;7.05;;;;;31.30;101163.00;;;;10431005;28;20198;-78
2021/07/02 16:02:59;;;;;;;8.48;6.63;;;;;29.40;101163.00;;;;10463466;28;20185;-77
2021/07/02 16:08:01;;;;;;;7.68;6.60;;;;;28.10;101155.00;;;;10479965;28;20189;-77
2021/07/02 16:13:04;;;;;;;9.13;6.88;;;;;27.30;101148.00;;;;10446131;28;20206;-77
2021/07/02 16:18:06;;;;;;;8.05;6.82;;;;;27.00;101136.00;;;;10430001;28;20245;-77
2021/07/02 16:23:08;;;;;;;11.75;6.80;;;;;26.80;101130.00;;;;10489469;28;20238;-76
2021/07/02 16:28:10;;;;;;;9.38;6.43;;;;;26.10;101141.00;;;;10466278;28;20197;-77
2021/07/02 16:33:12;;;;;;;6.55;5.43;;;;;26.10;101125.00;;;;10462090;28;20700;-77
2021/07/02 16:38:14;;;;;;;9.25;6.47;;;;;26.20;101130.00;;;;10479070;28;20244;-76
2021/07/02 16:43:16;;;;;;;6.97;5.90;;;;;25.90;101137.00;;;;10429174;28;20198;-76
2021/07/02 16:48:18;;;;;;;10.18;6.72;;;;;25.90;101125.00;;;;10487032;28;20211;-77
2021/07/02 16:53:21;;;;;;;8.98;7.18;;;;;25.80;101118.00;;;;10470491;28;20304;-76
2021/07/02 16:58:22;;;;;;;8.43;7.15;;;;;25.40;101118.00;;;;10491278;28;20197;-77
2021/07/02 17:03:24;;;;;;;8.77;7.60;;;;;25.20;101121.00;;;;10477710;28;20185;-76
2021/07/02 17:08:26;;;;;;;7.82;7.03;;;;;25.40;101117.00;;;;10511183;28;20203;-77
2021/07/02 17:13:28;;;;;;;9.20;7.18;;;;;25.50;101123.00;;;;10510521;28;20259;-76
2021/07/02 17:18:30;;;;;;;8.52;6.90;;;;;25.20;101120.00;;;;10526992;28;20193;-77
2021/07/02 17:23:32;;;;;;;9.43;6.88;;;;;25.40;101101.00;;;;10509674;28;20208;-76
2021/07/02 17:28:49;;;;;;;10.88;7.03;;;;;25.50;101120.00;;;;10512010;28;20192;-77
2021/07/02 17:33:51;;;;;;;10.13;7.35;;;;;25.30;101124.00;;;;10508753;28;20583;-77
2021/07/02 17:38:53;;;;;;;10.20;8.10;;;;;24.80;101111.00;;;;10502190;28;20240;-77
2021/07/02 17:43:55;;;;;;;7.85;6.97;;;;;24.70;101115.00;;;;10478038;28;20203;-76
2021/07/02 17:48:59;;;;;;;8.30;7.43;;;;;24.90;101119.00;;;;10492269;28;20193;-76
2021/07/02 17:54:02;;;;;;;8.25;6.72;;;;;25.10;101114.00;;;;10474486;28;20205;-77
2021/07/02 17:59:06;;;;;;;8.23;7.40;;;;;25.30;101122.00;;;;10434407;28;20228;-76
2021/07/02 18:04:08;;;;;;;8.43;7.18;;;;;25.40;101120.00;;;;10434462;28;20190;-76
2021/07/02 18:09:10;;;;;;;12.13;8.50;;;;;24.80;101125.00;;;;10483449;28;20181;-76
2021/07/02 18:14:11;;;;;;;8.63;7.75;;;;;24.30;101120.00;;;;10433706;28;20213;-76
2021/07/02 18:19:13;;;;;;;9.13;7.88;;;;;24.00;101126.00;;;;10466243;28;20202;-76
2021/07/02 18:24:15;;;;;;;9.02;8.10;;;;;24.00;101124.00;;;;10502602;28;20238;-77
2021/07/02 18:29:18;;;;;;;8.88;7.82;;;;;24.10;101124.00;;;;10474574;28;20197;-77
2021/07/02 18:34:20;;;;;;;10.25;8.00;;;;;23.90;101120.00;;;;10523889;28;20209;-76
2021/07/02 18:39:22;;;;;;;11.75;7.63;;;;;23.90;101118.00;;;;10507530;28;20656;-77
2021/07/02 18:44:24;;;;;;;8.57;7.15;;;;;23.60;101128.00;;;;10523745;28;20165;-77
2021/07/02 18:49:26;;;;;;;8.40;7.53;;;;;23.50;101131.00;;;;10490038;28;20199;-76
2021/07/02 18:54:28;;;;;;;11.00;7.68;;;;;23.60;101123.00;;;;10501578;28;20206;-76
2021/07/02 18:59:30;;;;;;;8.23;7.05;;;;;23.50;101123.00;;;;10447913;28;20197;-76
2021/07/02 19:04:32;;;;;;;9.65;8.27;;;;;23.00;101115.00;;;;10464172;28;20197;-76
2021/07/02 19:09:34;;;;;;;10.02;7.40;;;;;22.70;101121.00;;;;10481250;28;20197;-76
2021/07/02 19:14:36;;;;;;;11.88;7.95;;;;;22.50;101120.00;;;;10480758;28;20205;-76
2021/07/02 19:19:38;;;;;;;9.30;7.13;;;;;22.20;101128.00;;;;10475441;28;20212;-76
2021/07/02 19:24:40;;;;;;;8.80;7.22;;;;;22.00;101114.00;;;;10432549;28;20251;-76
2021/07/02 19:29:43;;;;;;;10.05;8.52;;;;;21.80;101111.00;;;;10463605;28;20268;-77
2021/07/02 19:34:44;;;;;;;9.75;7.70;;;;;21.60;101116.00;;;;10463577;28;20255;-76
2021/07/02 19:39:46;;;;;;;10.02;8.95;;;;;21.20;101121.00;;;;10447056;28;20197;-76
2021/07/02 19:44:48;;;;;;;9.50;7.55;;;;;20.80;101121.00;;;;10463527;28;20197;-76
2021/07/02 19:49:50;;;;;;;12.38;8.30;;;;;20.40;101129.00;;;;10446686;28;20677;-76
2021/07/02 19:54:52;;;;;;;9.82;8.48;;;;;20.10;101135.00;;;;10471851;28;20679;-76
2021/07/02 19:59:54;;;;;;;11.27;8.73;;;;;19.90;101131.00;;;;10521215;28;20614;-76
2021/07/02 20:04:58;;;;;;;13.25;8.73;;;;;19.70;101131.00;;;;10487570;28;20713;-76
2021/07/02 20:10:00;;;;;;;11.50;8.35;;;;;19.40;101123.00;;;;10487870;28;20644;-76
2021/07/02 20:15:05;;;;;;;10.50;8.48;;;;;19.20;101143.00;;;;10487894;28;20197;-76
2021/07/02 20:20:08;;;;;;;12.23;8.38;;;;;19.00;101146.00;;;;10487639;28;20193;-76
2021/07/02 20:25:11;;;;;;;13.15;8.90;;;;;18.80;101152.00;;;;10462441;28;20202;-76
2021/07/02 20:30:14;;;;;;;11.82;9.27;;;;;18.70;101151.00;;;;10479011;28;20637;-76
2021/07/02 20:35:16;;;;;;;11.82;8.90;;;;;18.60;101147.00;;;;10469590;28;20699;-76
2021/07/02 20:40:19;;;;;;;10.68;9.48;;;;;18.50;101144.00;;;;10487215;28;20201;-76
2021/07/02 20:45:23;;;;;;;11.63;9.88;;;;;18.30;101148.00;;;;10453750;28;20239;-76
2021/07/02 20:50:24;;;;;;;19.42;10.73;;;;;18.10;101148.00;;;;10469915;28;20189;-75
2021/07/02 20:55:26;;;;;;;14.10;10.80;;;;;17.90;101139.00;;;;10469589;28;20271;-76
2021/07/02 21:00:28;;;;;;;13.65;10.98;;;;;17.80;101143.00;;;;10469439;28;20186;-76
2021/07/02 21:05:30;;;;;;;12.02;10.68;;;;;17.70;101141.00;;;;10485570;28;20315;-76
2021/07/02 21:10:38;;;;;;;14.43;11.93;;;;;17.60;101143.00;;;;10468715;28;20196;-75
2021/07/02 21:15:40;;;;;;;14.70;11.60;;;;;17.50;101141.00;;;;10468854;28;20210;-76
2021/07/02 21:20:43;;;;;;;12.52;10.98;;;;;17.40;101140.00;;;;10452081;28;20195;-76
2021/07/02 21:25:44;;;;;;;13.63;11.68;;;;;17.30;101150.00;;;;10452181;28;20220;-76
2021/07/02 21:30:46;;;;;;;15.02;12.02;;;;;17.20;101149.00;;;;10451767;28;20244;-76
2021/07/02 21:35:48;;;;;;;13.25;11.52;;;;;17.20;101155.00;;;;10484331;28;20221;-76
2021/07/02 21:40:50;;;;;;;13.18;11.77;;;;;17.00;101158.00;;;;10467477;28;20652;-76
2021/07/02 21:45:52;;;;;;;14.48;12.75;;;;;16.90;101151.00;;;;10450797;28;20540;-76
2021/07/02 21:50:54;;;;;;;15.18;13.52;;;;;16.80;101154.00;;;;10467501;28;20250;-76
2021/07/02 21:55:56;;;;;;;14.93;12.48;;;;;16.70;101154.00;;;;10450548;28;20251;-76
2021/07/02 22:00:58;;;;;;;14.40;12.77;;;;;16.60;101150.00;;;;10466817;28;20190;-75
2021/07/02 22:06:01;;;;;;;14.67;13.13;;;;;16.50;101154.00;;;;10466843;28;20193;-76
2021/07/02 22:11:03;;;;;;;14.27;12.77;;;;;16.40;101149.00;;;;10450318;28;20216;-76
2021/07/02 22:16:05;;;;;;;14.57;12.87;;;;;16.30;101152.00;;;;10482840;28;20209;-75
2021/07/02 22:21:07;;;;;;;14.83;13.03;;;;;16.20;101152.00;;;;10449658;28;20243;-76
2021/07/02 22:26:09;;;;;;;15.67;13.67;;;;;16.20;101162.00;;;;10476367;28;20197;-76
2021/07/02 22:31:10;;;;;;;15.90;13.30;;;;;16.20;101159.00;;;;10466132;28;20193;-76
2021/07/02 22:36:13;;;;;;;15.43;13.53;;;;;16.00;101168.00;;;;10478118;28;20591;-76
2021/07/02 22:41:15;;;;;;;18.93;14.37;;;;;16.00;101165.00;;;;10465299;28;20559;-76
2021/07/02 22:46:16;;;;;;;16.10;13.27;;;;;16.00;101164.00;;;;10448714;28;20640;-76
2021/07/02 22:51:18;;;;;;;18.43;14.50;;;;;15.90;101162.00;;;;10465158;28;20652;-75
2021/07/02 22:56:21;;;;;;;17.10;15.10;;;;;15.80;101162.00;;;;10543882;28;20558;-76
2021/07/02 23:01:23;;;;;;;16.80;14.30;;;;;15.70;101163.00;;;;10531983;28;20279;-76
2021/07/02 23:06:25;;;;;;;16.87;14.53;;;;;15.60;101151.00;;;;10531488;28;20185;-76
2021/07/02 23:11:27;;;;;;;17.20;15.27;;;;;15.60;101160.00;;;;10531210;28;20188;-76
2021/07/02 23:16:29;;;;;;;16.17;14.43;;;;;15.50;101157.00;;;;10530291;28;20212;-76
2021/07/02 23:21:31;;;;;;;18.27;15.30;;;;;15.50;101151.00;;;;10531020;28;20181;-76
2021/07/02 23:26:33;;;;;;;17.30;15.17;;;;;15.50;101144.00;;;;10525520;28;20264;-76
2021/07/02 23:31:35;;;;;;;20.13;15.57;;;;;15.40;101148.00;;;;10504853;28;20185;-76
2021/07/02 23:36:37;;;;;;;20.53;15.33;;;;;15.30;101145.00;;;;10521862;28;20726;-76
2021/07/02 23:41:39;;;;;;;20.60;16.37;;;;;15.20;101144.00;;;;10488289;28;20207;-76
2021/07/02 23:46:41;;;;;;;23.03;16.93;;;;;15.10;101146.00;;;;10480123;28;20193;-76
2021/07/02 23:51:43;;;;;;;18.10;15.60;;;;;15.10;101139.00;;;;10504762;28;20199;-76
2021/07/02 23:56:46;;;;;;;25.93;17.73;;;;;15.10;101149.00;;;;10504096;28;20221;-76
